Princeton, Massachusetts
Current Conditions -  °F | °C
As of 6:52 AM on Monday 26 Jan 2015 (Local Time) from KFIT Reporting Station
Clear Clear  
Wind Chill: 10°   Ceiling: Unl
Heat Index: 10°   Visibility: 10mi
Dew Point: -3°   Wind: 0mph
Humidity: 56%   Direction: NA
Pressure: 30.12"   Gusts: NA
Location:  42.45°N, 71.88°W
Report Text: KFIT 261152Z AUTO 00000KT 10SM CLR M12/M19 A3012 RMK AO2 SLP207 T11221194 11094 21133 53014
Loading
Personal Weather Stations






























Interactive Weather Map New forecast layout! Learn more

10-Day Weather Forecast

Advertisements
Track Severe Weather on mobile